createdAt,value
2023-03-19T00:02:17.123Z,17.63
2023-03-19T00:05:21.070Z,19.08
2023-03-19T00:08:25.990Z,19.73
2023-03-19T00:11:29.241Z,16.83
2023-03-19T00:14:32.499Z,18.92
2023-03-19T00:17:35.818Z,17.10
2023-03-19T00:20:39.126Z,18.27
2023-03-19T00:23:43.762Z,16.83
2023-03-19T00:26:47.167Z,17.85
2023-03-19T00:29:50.567Z,17.80
2023-03-19T00:32:53.780Z,17.98
2023-03-19T00:35:57.059Z,17.77
2023-03-19T00:39:02.451Z,17.55
2023-03-19T00:42:06.196Z,17.55
2023-03-19T00:45:11.305Z,16.95
2023-03-19T00:48:14.549Z,17.15
2023-03-19T00:51:17.827Z,16.50
2023-03-19T00:54:22.415Z,17.58
2023-03-19T00:57:25.559Z,17.38
2023-03-19T01:00:28.891Z,17.30
2023-03-19T01:03:32.254Z,15.68
2023-03-19T01:06:35.386Z,17.20
2023-03-19T01:09:41.110Z,17.50
2023-03-19T01:12:44.391Z,17.80
2023-03-19T01:15:52.475Z,16.65
2023-03-19T01:18:56.134Z,18.42
2023-03-19T01:21:59.455Z,16.92
2023-03-19T01:25:05.773Z,16.20
2023-03-19T01:28:09.040Z,16.40
2023-03-19T01:31:15.078Z,17.13
2023-03-19T01:34:47.756Z,17.50
2023-03-19T01:37:53.373Z,15.95
2023-03-19T01:40:58.728Z,17.23
2023-03-19T01:44:02.014Z,17.35
2023-03-19T01:47:19.170Z,15.95
2023-03-19T01:50:43.750Z,16.10
2023-03-19T01:54:25.140Z,16.35
2023-03-19T01:57:36.617Z,16.80
2023-03-19T02:00:53.552Z,15.77
2023-03-19T02:03:57.549Z,15.98
2023-03-19T02:07:05.057Z,15.82
2023-03-19T02:10:12.491Z,17.02
2023-03-19T02:13:17.682Z,16.25
2023-03-19T02:16:21.376Z,16.00
2023-03-19T02:19:32.087Z,16.02
2023-03-19T02:22:37.823Z,15.77
2023-03-19T02:25:52.859Z,17.85
2023-03-19T02:28:57.094Z,17.05
2023-03-19T02:32:06.300Z,17.60
2023-03-19T02:35:10.564Z,17.65
2023-03-19T02:38:15.033Z,17.92
2023-03-19T02:41:20.663Z,17.42
2023-03-19T02:44:23.890Z,18.02
2023-03-19T02:47:28.917Z,17.48
2023-03-19T02:50:32.430Z,18.00
2023-03-19T02:53:36.145Z,19.13
2023-03-19T02:56:43.664Z,19.40
2023-03-19T02:59:46.948Z,18.88
2023-03-19T03:02:50.223Z,18.88
2023-03-19T03:05:53.349Z,18.73
2023-03-19T03:08:56.592Z,18.58
2023-03-19T03:12:02.444Z,19.50
2023-03-19T03:15:06.950Z,19.02
2023-03-19T03:18:10.215Z,18.33
2023-03-19T03:21:13.765Z,20.65
2023-03-19T03:24:16.985Z,20.80
2023-03-19T03:27:21.544Z,21.25
2023-03-19T03:30:25.128Z,20.73
2023-03-19T03:33:28.334Z,20.17
2023-03-19T03:36:32.494Z,20.88
2023-03-19T03:39:35.698Z,20.63
2023-03-19T03:42:40.433Z,22.48
2023-03-19T03:45:45.497Z,21.95
2023-03-19T03:48:49.294Z,22.15
2023-03-19T03:51:52.716Z,21.55
2023-03-19T03:54:56.505Z,23.50
2023-03-19T03:58:01.117Z,23.92
2023-03-19T04:01:04.349Z,23.85
2023-03-19T04:04:08.651Z,24.33
2023-03-19T04:07:12.189Z,25.20
2023-03-19T04:10:19.401Z,25.15
2023-03-19T04:13:25.358Z,24.70
2023-03-19T04:16:29.358Z,24.58
2023-03-19T04:19:33.211Z,23.50
2023-03-19T04:22:36.673Z,23.10
2023-03-19T04:25:41.478Z,24.10
2023-03-19T04:28:46.287Z,21.70
2023-03-19T04:31:49.474Z,23.67
2023-03-19T04:34:52.836Z,20.67
2023-03-19T04:37:56.065Z,21.90
2023-03-19T04:40:59.900Z,21.52
2023-03-19T04:44:04.578Z,22.33
2023-03-19T04:47:08.275Z,21.25
2023-03-19T04:50:24.971Z,21.88
2023-03-19T04:53:29.669Z,20.38
2023-03-19T04:56:33.117Z,19.33
2023-03-19T04:59:37.833Z,20.77
2023-03-19T05:02:42.828Z,19.05
2023-03-19T05:05:46.492Z,17.85
2023-03-19T05:08:49.919Z,17.83
2023-03-19T05:11:55.032Z,17.27
2023-03-19T05:15:00.746Z,16.80
2023-03-19T05:18:11.279Z,15.48
2023-03-19T05:21:17.026Z,14.98
2023-03-19T05:24:21.203Z,16.13
2023-03-19T05:27:24.938Z,15.65
2023-03-19T05:30:49.757Z,15.48
2023-03-19T05:37:22.531Z,14.40
2023-03-19T05:40:33.852Z,15.38
2023-03-19T05:43:45.256Z,14.65
2023-03-19T05:46:59.424Z,14.38
2023-03-19T05:50:07.140Z,14.43
2023-03-19T05:53:10.689Z,14.15
2023-03-19T05:56:16.982Z,14.50
2023-03-19T05:59:40.370Z,14.35
2023-03-19T06:03:03.746Z,15.27
2023-03-19T06:06:15.272Z,14.77
2023-03-19T06:09:21.543Z,14.40
2023-03-19T06:12:31.147Z,15.47
2023-03-19T06:15:52.665Z,14.55
2023-03-19T06:19:01.561Z,14.20
2023-03-19T06:22:04.863Z,15.45
2023-03-19T06:25:09.352Z,14.82
2023-03-19T06:28:14.445Z,15.18
2023-03-19T06:31:20.748Z,15.27
2023-03-19T06:34:37.778Z,15.23
2023-03-19T06:37:41.702Z,15.10
2023-03-19T06:40:44.920Z,14.50
2023-03-19T06:43:48.370Z,14.57
2023-03-19T06:46:51.613Z,14.85
2023-03-19T06:49:56.518Z,14.23
2023-03-19T06:53:02.439Z,14.35
2023-03-19T06:56:06.056Z,13.05
2023-03-19T06:59:13.031Z,14.00
2023-03-19T07:02:17.411Z,13.15
2023-03-19T07:05:22.386Z,13.27
2023-03-19T07:08:29.560Z,13.40
2023-03-19T07:11:35.819Z,13.48
2023-03-19T07:14:39.405Z,13.43
2023-03-19T07:17:43.906Z,13.35
2023-03-19T07:20:48.831Z,12.85
2023-03-19T07:23:52.241Z,13.40
2023-03-19T07:26:55.569Z,13.25
2023-03-19T07:29:58.809Z,12.98
2023-03-19T07:33:02.326Z,13.32
2023-03-19T07:36:08.221Z,14.18
2023-03-19T07:39:11.433Z,13.80
2023-03-19T07:42:15.348Z,13.60
2023-03-19T07:45:19.374Z,14.93
2023-03-19T07:48:22.601Z,14.45
2023-03-19T07:51:27.634Z,14.20
2023-03-19T07:54:31.310Z,14.85
2023-03-19T07:57:34.616Z,14.75
2023-03-19T08:00:38.205Z,14.23
2023-03-19T08:03:41.582Z,13.57
2023-03-19T08:06:46.462Z,12.95
2023-03-19T08:09:49.925Z,13.45
2023-03-19T08:12:53.364Z,13.63
2023-03-19T08:15:56.709Z,13.52
2023-03-19T08:19:00.211Z,13.32
2023-03-19T08:22:04.972Z,13.38
2023-03-19T08:25:09.407Z,13.95
2023-03-19T08:28:13.114Z,14.18
2023-03-19T08:31:16.618Z,13.80
2023-03-19T08:34:20.080Z,13.35
2023-03-19T08:37:25.142Z,13.90
2023-03-19T08:40:28.647Z,13.90
2023-03-19T08:43:33.335Z,13.18
2023-03-19T08:46:36.993Z,14.32
2023-03-19T08:49:40.966Z,13.70
2023-03-19T08:52:45.855Z,13.48
2023-03-19T08:55:53.958Z,14.60
2023-03-19T08:58:58.061Z,13.57
2023-03-19T09:02:01.665Z,14.25
2023-03-19T09:05:05.569Z,13.07
2023-03-19T09:08:10.664Z,14.95
2023-03-19T09:11:16.849Z,14.30
2023-03-19T09:14:20.908Z,14.18
2023-03-19T09:17:24.177Z,13.07
2023-03-19T09:20:27.599Z,14.48
2023-03-19T09:23:32.238Z,13.25
2023-03-19T09:26:36.203Z,13.68
2023-03-19T09:29:39.440Z,13.93
2023-03-19T09:32:42.978Z,13.60
2023-03-19T09:36:00.622Z,13.57
2023-03-19T09:39:14.027Z,13.88
2023-03-19T09:42:34.470Z,14.23
2023-03-19T09:45:40.896Z,13.93
2023-03-19T09:48:50.854Z,12.93
2023-03-19T09:51:57.195Z,14.30
2023-03-19T09:55:07.035Z,14.43
2023-03-19T09:58:16.694Z,11.05
2023-03-19T10:01:26.869Z,10.80
2023-03-19T10:04:43.716Z,14.93
2023-03-19T10:08:19.521Z,16.27
2023-03-19T10:11:41.369Z,16.77
2023-03-19T10:15:00.670Z,14.65
2023-03-19T10:18:08.079Z,13.45
2023-03-19T10:21:14.678Z,12.82
2023-03-19T10:24:34.950Z,13.45
2023-03-19T10:27:39.958Z,13.10
2023-03-19T10:30:45.499Z,14.07
2023-03-19T10:33:56.017Z,13.52
2023-03-19T10:37:03.988Z,13.05
2023-03-19T10:40:18.805Z,14.07
2023-03-19T10:43:26.764Z,13.30
2023-03-19T10:46:37.507Z,13.95
2023-03-19T10:49:40.836Z,14.90
2023-03-19T10:52:44.767Z,14.63
2023-03-19T10:55:52.059Z,14.90
2023-03-19T10:59:01.900Z,13.90
2023-03-19T11:02:17.503Z,13.82
2023-03-19T11:05:27.416Z,13.77
2023-03-19T11:11:45.061Z,13.75
2023-03-19T11:14:52.443Z,14.40
2023-03-19T11:17:59.306Z,14.38
2023-03-19T11:21:08.402Z,13.70
2023-03-19T11:24:13.942Z,14.23
2023-03-19T11:27:17.302Z,14.20
2023-03-19T11:30:22.844Z,14.10
2023-03-19T11:33:51.469Z,14.43
2023-03-19T11:37:05.048Z,13.73
2023-03-19T11:40:15.251Z,13.70
2023-03-19T11:43:41.927Z,13.50
2023-03-19T11:46:55.613Z,15.55
2023-03-19T11:50:18.626Z,14.45
2023-03-19T11:53:27.185Z,14.38
2023-03-19T11:56:36.352Z,14.75
2023-03-19T12:00:10.191Z,14.05
2023-03-19T12:03:49.010Z,14.73
2023-03-19T12:07:04.115Z,14.23
2023-03-19T12:10:27.029Z,14.80
2023-03-19T12:13:44.631Z,13.95
2023-03-19T12:16:58.745Z,14.00
2023-03-19T12:20:20.253Z,15.27
2023-03-19T12:23:37.684Z,15.15
2023-03-19T12:26:51.130Z,14.98
2023-03-19T12:30:02.131Z,15.88
2023-03-19T12:33:23.369Z,14.88
2023-03-19T12:36:30.738Z,15.23
2023-03-19T12:39:40.037Z,15.23
2023-03-19T12:42:44.147Z,14.50
2023-03-19T12:45:50.806Z,15.18
2023-03-19T12:48:58.802Z,15.63
2023-03-19T12:52:15.196Z,15.57
2023-03-19T12:55:30.923Z,16.40
2023-03-19T12:58:53.960Z,15.93
2023-03-19T13:02:04.567Z,16.15
2023-03-19T13:05:22.978Z,15.13
2023-03-19T13:08:34.199Z,16.48
2023-03-19T13:11:45.402Z,16.23
2023-03-19T13:14:54.668Z,15.55
2023-03-19T13:18:17.343Z,16.80
2023-03-19T13:21:24.728Z,16.33
2023-03-19T13:24:30.901Z,19.20
2023-03-19T13:27:37.250Z,16.80
2023-03-19T13:30:42.435Z,15.70
2023-03-19T13:33:55.455Z,15.75
2023-03-19T13:37:05.716Z,14.48
2023-03-19T13:40:40.303Z,14.35
2023-03-19T13:43:54.497Z,13.70
2023-03-19T13:46:57.867Z,14.07
2023-03-19T13:50:38.809Z,13.40
2023-03-19T13:53:53.120Z,13.63
2023-03-19T13:57:23.292Z,14.75
2023-03-19T14:04:05.766Z,14.20
2023-03-19T14:07:18.426Z,14.32
2023-03-19T14:10:27.854Z,14.00
2023-03-19T14:13:37.486Z,13.00
2023-03-19T14:16:46.373Z,15.90
2023-03-19T14:19:52.507Z,12.73
2023-03-19T14:23:04.331Z,12.15
2023-03-19T14:26:14.219Z,13.15
2023-03-19T14:29:19.471Z,25.23
2023-03-19T14:32:29.629Z,192.52
2023-03-19T14:35:40.937Z,320.50
2023-03-19T14:38:50.712Z,118.75
2023-03-19T14:42:01.752Z,99.80
2023-03-19T14:45:30.197Z,91.95
2023-03-19T14:49:08.405Z,32.15
2023-03-19T14:52:17.682Z,14.90
2023-03-19T14:55:22.072Z,14.75
2023-03-19T14:58:25.619Z,14.30
2023-03-19T15:01:29.436Z,13.50
2023-03-19T15:04:36.008Z,12.60
2023-03-19T15:07:45.918Z,13.52
2023-03-19T15:10:59.524Z,13.82
2023-03-19T15:14:19.037Z,13.65
2023-03-19T15:17:26.287Z,13.37
2023-03-19T15:20:34.489Z,13.18
2023-03-19T15:23:41.006Z,13.63
2023-03-19T15:26:47.083Z,13.10
2023-03-19T15:29:51.752Z,12.93
2023-03-19T15:33:09.422Z,14.27
2023-03-19T15:39:25.369Z,16.08
2023-03-19T15:42:30.500Z,13.18
2023-03-19T15:45:34.915Z,14.30
2023-03-19T15:48:43.987Z,13.45
2023-03-19T15:51:51.603Z,12.82
2023-03-19T15:54:58.122Z,12.98
2023-03-19T15:58:07.030Z,14.00
2023-03-19T16:01:13.491Z,15.35
2023-03-19T16:04:23.205Z,14.95
2023-03-19T16:07:33.920Z,15.53
2023-03-19T16:10:43.394Z,16.58
2023-03-19T16:13:56.987Z,15.68
2023-03-19T16:17:11.565Z,18.58
2023-03-19T16:20:15.784Z,23.38
2023-03-19T16:23:20.079Z,28.75
2023-03-19T16:26:27.664Z,27.60
2023-03-19T16:29:35.279Z,27.55
2023-03-19T16:32:39.034Z,22.95
2023-03-19T16:35:44.655Z,21.50
2023-03-19T16:38:56.424Z,20.90
2023-03-19T16:42:26.992Z,18.40
2023-03-19T16:48:37.094Z,17.45
2023-03-19T16:51:42.057Z,17.70
2023-03-19T16:54:46.812Z,17.90
2023-03-19T16:57:57.918Z,20.20
2023-03-19T17:01:03.901Z,19.80
2023-03-19T17:04:14.010Z,19.83
2023-03-19T17:07:17.608Z,20.92
2023-03-19T17:10:23.816Z,21.88
2023-03-19T17:13:30.918Z,25.02
2023-03-19T17:16:34.896Z,26.42
2023-03-19T17:19:38.392Z,30.25
2023-03-19T17:22:45.217Z,33.88
2023-03-19T17:25:48.589Z,38.20
2023-03-19T17:28:57.447Z,42.45
2023-03-19T17:32:06.895Z,44.03
2023-03-19T17:35:16.593Z,46.28
2023-03-19T17:38:21.517Z,46.58
2023-03-19T17:41:24.900Z,46.72
2023-03-19T17:44:29.735Z,51.65
2023-03-19T17:47:35.358Z,59.60
2023-03-19T17:50:38.715Z,56.78
2023-03-19T17:53:46.298Z,57.95
2023-03-19T17:56:50.949Z,62.25
2023-03-19T17:59:56.533Z,64.80
2023-03-19T18:02:59.964Z,79.40
2023-03-19T18:06:07.109Z,70.50
2023-03-19T18:09:19.077Z,98.32
2023-03-19T18:12:22.407Z,91.68
2023-03-19T18:15:27.374Z,137.13
2023-03-19T18:18:31.092Z,134.20
2023-03-19T18:21:34.587Z,143.88
2023-03-19T18:24:39.668Z,135.07
2023-03-19T18:27:45.111Z,114.85
2023-03-19T18:30:53.021Z,103.93
2023-03-19T18:34:00.777Z,97.60
2023-03-19T18:37:04.401Z,97.30
2023-03-19T18:40:11.104Z,100.65
2023-03-19T18:43:16.347Z,101.80
2023-03-19T18:46:24.553Z,102.07
2023-03-19T18:49:29.675Z,101.45
2023-03-19T18:52:33.076Z,100.95
2023-03-19T18:55:36.584Z,95.97
2023-03-19T18:58:44.428Z,92.63
2023-03-19T19:01:49.582Z,94.13
2023-03-19T19:04:52.843Z,93.25
2023-03-19T19:07:58.002Z,95.68
2023-03-19T19:11:04.302Z,96.47
2023-03-19T19:14:14.300Z,95.95
2023-03-19T19:17:22.323Z,111.90
2023-03-19T19:20:27.833Z,100.97
2023-03-19T19:23:31.611Z,108.50
2023-03-19T19:26:37.305Z,110.18
2023-03-19T19:29:42.449Z,108.07
2023-03-19T19:32:48.364Z,108.13
2023-03-19T19:35:53.119Z,108.63
2023-03-19T19:38:58.076Z,110.35
2023-03-19T19:42:02.171Z,106.80
2023-03-19T19:45:06.758Z,108.15
2023-03-19T19:48:16.202Z,111.88
2023-03-19T19:51:21.654Z,120.80
2023-03-19T19:54:25.684Z,117.65
2023-03-19T19:57:29.171Z,117.20
2023-03-19T20:00:33.466Z,118.30
2023-03-19T20:03:39.840Z,117.65
2023-03-19T20:06:43.458Z,117.82
2023-03-19T20:09:49.227Z,108.75
2023-03-19T20:12:55.856Z,106.32
2023-03-19T20:16:01.092Z,106.57
2023-03-19T20:19:06.988Z,102.82
2023-03-19T20:22:10.588Z,96.70
2023-03-19T20:25:15.693Z,93.68
2023-03-19T20:28:23.007Z,90.53
2023-03-19T20:31:29.638Z,88.50
2023-03-19T20:34:39.472Z,85.60
2023-03-19T20:37:43.683Z,87.50
2023-03-19T20:40:54.022Z,83.40
2023-03-19T20:44:00.698Z,83.10
2023-03-19T20:47:07.109Z,83.68
2023-03-19T20:50:24.130Z,80.97
2023-03-19T20:53:28.348Z,84.38
2023-03-19T20:56:35.095Z,84.28
2023-03-19T20:59:38.540Z,86.07
2023-03-19T21:02:46.659Z,85.43
2023-03-19T21:05:53.421Z,91.78
2023-03-19T21:09:00.356Z,92.38
2023-03-19T21:12:03.705Z,95.78
2023-03-19T21:15:14.048Z,91.55
2023-03-19T21:18:18.972Z,92.25
2023-03-19T21:21:31.584Z,92.13
2023-03-19T21:24:34.770Z,93.40
2023-03-19T21:27:39.937Z,94.03
2023-03-19T21:30:44.964Z,92.20
2023-03-19T21:33:49.905Z,94.15
2023-03-19T21:36:54.553Z,96.38
2023-03-19T21:39:57.831Z,95.07
2023-03-19T21:43:04.078Z,96.53
2023-03-19T21:46:23.309Z,94.80
2023-03-19T21:49:27.382Z,98.57
2023-03-19T21:52:42.746Z,94.57
2023-03-19T21:55:55.041Z,99.10
2023-03-19T21:58:58.430Z,95.25
2023-03-19T22:02:04.202Z,91.28
2023-03-19T22:05:20.010Z,97.40
2023-03-19T22:08:26.157Z,97.65
2023-03-19T22:11:31.518Z,99.78
2023-03-19T22:14:35.486Z,103.28
2023-03-19T22:17:39.238Z,103.30
2023-03-19T22:20:43.741Z,97.32
2023-03-19T22:23:48.697Z,105.00
2023-03-19T22:26:57.428Z,107.93
2023-03-19T22:30:02.917Z,108.40
2023-03-19T22:33:14.614Z,113.45
2023-03-19T22:36:18.585Z,107.80
2023-03-19T22:39:26.167Z,109.63
2023-03-19T22:42:29.447Z,106.32
2023-03-19T22:45:34.399Z,103.43
2023-03-19T22:48:38.606Z,105.72
2023-03-19T22:51:42.005Z,106.78
2023-03-19T22:54:47.846Z,102.32
2023-03-19T22:57:51.816Z,102.55
2023-03-19T23:00:56.127Z,112.57
2023-03-19T23:04:00.313Z,109.43
2023-03-19T23:07:03.555Z,106.10
2023-03-19T23:10:16.594Z,108.13
2023-03-19T23:13:20.491Z,107.72
2023-03-19T23:16:25.750Z,107.53
2023-03-19T23:19:31.100Z,111.95
2023-03-19T23:22:34.296Z,108.88
2023-03-19T23:25:38.935Z,107.72
2023-03-19T23:28:42.707Z,108.60
2023-03-19T23:31:46.226Z,107.55
2023-03-19T23:34:59.532Z,104.97
2023-03-19T23:38:04.092Z,108.53
2023-03-19T23:41:08.941Z,107.40
2023-03-19T23:44:14.433Z,106.55
2023-03-19T23:47:17.747Z,103.57
2023-03-19T23:50:21.020Z,105.75
2023-03-19T23:53:26.129Z,103.72
2023-03-19T23:57:10.203Z,103.40
